sensor_id;sensor_type;location;lat;lon;timestamp;noise_LAeq;noise_LA_min;noise_LA_max;noise_LA01;noise_LA95
79288;Laerm;68737;53.946;27.634;2023-04-24T00:01:32;41.330521;38.232376;52.211830;;
79288;Laerm;68737;53.946;27.634;2023-04-24T00:04:02;45.417885;37.970665;57.526611;;
79288;Laerm;68737;53.946;27.634;2023-04-24T00:06:32;41.319580;38.574013;48.012741;;
79288;Laerm;68737;53.946;27.634;2023-04-24T00:09:03;42.222412;38.586426;49.300079;;
79288;Laerm;68737;53.946;27.634;2023-04-24T00:11:32;43.148613;38.476295;59.219013;;
79288;Laerm;68737;53.946;27.634;2023-04-24T00:14:02;43.193108;38.262703;50.202042;;
79288;Laerm;68737;53.946;27.634;2023-04-24T00:16:32;40.529648;37.605270;46.069504;;
79288;Laerm;68737;53.946;27.634;2023-04-24T00:19:02;41.994179;37.721008;51.490021;;
79288;Laerm;68737;53.946;27.634;2023-04-24T00:21:32;41.376884;37.347214;62.595936;;
79288;Laerm;68737;53.946;27.634;2023-04-24T00:24:02;41.230644;38.402786;48.547371;;
79288;Laerm;68737;53.946;27.634;2023-04-24T00:26:32;43.389847;38.493652;55.023010;;
79288;Laerm;68737;53.946;27.634;2023-04-24T00:29:02;41.067978;37.949539;47.097984;;
79288;Laerm;68737;53.946;27.634;2023-04-24T00:31:32;42.530396;37.754295;52.290154;;
79288;Laerm;68737;53.946;27.634;2023-04-24T00:34:03;40.968414;37.771858;46.412659;;
79288;Laerm;68737;53.946;27.634;2023-04-24T00:36:32;41.166328;37.883324;47.371956;;
79288;Laerm;68737;53.946;27.634;2023-04-24T00:39:02;44.053413;39.075882;57.212822;;
79288;Laerm;68737;53.946;27.634;2023-04-24T00:41:32;42.972046;37.885941;52.372673;;
79288;Laerm;68737;53.946;27.634;2023-04-24T00:44:02;40.730659;37.733017;48.507874;;
79288;Laerm;68737;53.946;27.634;2023-04-24T00:46:32;41.178139;37.784622;48.125557;;
79288;Laerm;68737;53.946;27.634;2023-04-24T00:49:02;42.259476;38.676773;54.883110;;
79288;Laerm;68737;53.946;27.634;2023-04-24T00:51:33;47.113373;38.173859;61.371811;;
79288;Laerm;68737;53.946;27.634;2023-04-24T00:54:02;42.521156;39.219696;50.191391;;
79288;Laerm;68737;53.946;27.634;2023-04-24T00:56:32;43.743004;39.595573;53.481522;;
79288;Laerm;68737;53.946;27.634;2023-04-24T00:59:03;43.227654;39.457558;58.546951;;
79288;Laerm;68737;53.946;27.634;2023-04-24T01:01:32;42.916336;39.256058;47.021721;;
79288;Laerm;68737;53.946;27.634;2023-04-24T01:04:02;43.329391;37.759628;56.619720;;
79288;Laerm;68737;53.946;27.634;2023-04-24T01:06:32;41.054359;37.773155;53.059265;;
79288;Laerm;68737;53.946;27.634;2023-04-24T01:09:02;45.272820;38.596581;58.815491;;
79288;Laerm;68737;53.946;27.634;2023-04-24T01:11:32;44.349808;37.657028;58.162018;;
79288;Laerm;68737;53.946;27.634;2023-04-24T01:14:02;44.895721;38.618919;57.739746;;
79288;Laerm;68737;53.946;27.634;2023-04-24T01:16:32;41.879715;38.161171;48.235382;;
79288;Laerm;68737;53.946;27.634;2023-04-24T01:19:02;42.773422;38.509834;57.055008;;
79288;Laerm;68737;53.946;27.634;2023-04-24T01:21:34;42.152100;39.047798;47.008255;;
79288;Laerm;68737;53.946;27.634;2023-04-24T01:24:03;44.016281;38.696602;56.496185;;
79288;Laerm;68737;53.946;27.634;2023-04-24T01:26:32;46.599800;38.245926;61.092430;;
79288;Laerm;68737;53.946;27.634;2023-04-24T01:29:02;45.840164;39.346542;67.839798;;
79288;Laerm;68737;53.946;27.634;2023-04-24T01:31:32;42.534470;38.396301;48.602173;;
79288;Laerm;68737;53.946;27.634;2023-04-24T01:34:02;42.668449;38.737610;48.048813;;
79288;Laerm;68737;53.946;27.634;2023-04-24T01:36:32;43.862968;40.583740;50.322159;;
79288;Laerm;68737;53.946;27.634;2023-04-24T01:39:02;43.935539;38.804878;58.197556;;
79288;Laerm;68737;53.946;27.634;2023-04-24T01:41:32;42.026428;38.388466;51.941734;;
79288;Laerm;68737;53.946;27.634;2023-04-24T01:44:02;49.560333;38.333656;64.871124;;
79288;Laerm;68737;53.946;27.634;2023-04-24T01:46:32;46.557709;38.906433;62.122185;;
79288;Laerm;68737;53.946;27.634;2023-04-24T01:49:02;43.113365;38.091667;54.120926;;
79288;Laerm;68737;53.946;27.634;2023-04-24T01:51:32;45.202919;38.374313;57.413857;;
79288;Laerm;68737;53.946;27.634;2023-04-24T01:54:02;43.244751;38.232765;54.778839;;
79288;Laerm;68737;53.946;27.634;2023-04-24T01:59:02;43.321472;39.159706;53.713493;;
79288;Laerm;68737;53.946;27.634;2023-04-24T02:01:33;44.529396;39.529587;56.235001;;
79288;Laerm;68737;53.946;27.634;2023-04-24T02:04:03;44.743942;40.780670;48.577309;;
79288;Laerm;68737;53.946;27.634;2023-04-24T02:06:32;47.084587;39.800385;54.853661;;
79288;Laerm;68737;53.946;27.634;2023-04-24T02:09:02;46.096718;39.689270;54.034576;;
79288;Laerm;68737;53.946;27.634;2023-04-24T02:11:32;44.864647;38.952255;55.172844;;
79288;Laerm;68737;53.946;27.634;2023-04-24T02:14:02;45.313988;39.155251;55.345497;;
79288;Laerm;68737;53.946;27.634;2023-04-24T02:16:32;47.303322;40.352669;59.991821;;
79288;Laerm;68737;53.946;27.634;2023-04-24T02:19:02;45.367485;40.610573;55.363983;;
79288;Laerm;68737;53.946;27.634;2023-04-24T02:21:33;46.388550;41.015175;56.419945;;
79288;Laerm;68737;53.946;27.634;2023-04-24T02:24:02;46.385193;40.231461;55.701500;;
79288;Laerm;68737;53.946;27.634;2023-04-24T02:26:32;46.045914;40.216629;56.618622;;
79288;Laerm;68737;53.946;27.634;2023-04-24T02:29:02;46.458199;39.898651;60.647385;;
79288;Laerm;68737;53.946;27.634;2023-04-24T02:31:32;46.510849;40.739388;59.199234;;
79288;Laerm;68737;53.946;27.634;2023-04-24T02:34:02;46.658051;41.051605;69.326309;;
79288;Laerm;68737;53.946;27.634;2023-04-24T02:36:32;45.937263;40.705551;64.279129;;
79288;Laerm;68737;53.946;27.634;2023-04-24T02:39:02;49.655487;41.121307;62.702076;;
79288;Laerm;68737;53.946;27.634;2023-04-24T02:41:32;47.559601;40.780678;61.613468;;
79288;Laerm;68737;53.946;27.634;2023-04-24T02:44:02;46.535324;40.990555;58.493645;;
79288;Laerm;68737;53.946;27.634;2023-04-24T02:46:32;49.797768;41.698196;64.624420;;
79288;Laerm;68737;53.946;27.634;2023-04-24T02:49:02;46.809280;41.062225;58.628716;;
79288;Laerm;68737;53.946;27.634;2023-04-24T02:51:32;57.503120;40.819489;75.905861;;
79288;Laerm;68737;53.946;27.634;2023-04-24T02:54:02;58.482903;41.978882;76.149475;;
79288;Laerm;68737;53.946;27.634;2023-04-24T02:56:32;48.313957;40.375435;64.193481;;
79288;Laerm;68737;53.946;27.634;2023-04-24T02:59:02;49.925377;41.166542;64.951492;;
79288;Laerm;68737;53.946;27.634;2023-04-24T03:01:32;46.243599;41.723335;60.261814;;
79288;Laerm;68737;53.946;27.634;2023-04-24T03:04:02;49.892632;41.434784;68.477417;;
79288;Laerm;68737;53.946;27.634;2023-04-24T03:06:32;46.025513;40.609924;61.679348;;
79288;Laerm;68737;53.946;27.634;2023-04-24T03:09:02;47.223656;41.278343;61.242897;;
79288;Laerm;68737;53.946;27.634;2023-04-24T03:11:32;47.554642;41.180885;62.055180;;
79288;Laerm;68737;53.946;27.634;2023-04-24T03:14:02;48.293747;41.194786;58.038498;;
79288;Laerm;68737;53.946;27.634;2023-04-24T03:16:32;47.081436;40.427513;60.515266;;
79288;Laerm;68737;53.946;27.634;2023-04-24T03:19:02;47.840584;41.363663;57.258049;;
79288;Laerm;68737;53.946;27.634;2023-04-24T03:21:32;46.959541;41.290405;72.544220;;
79288;Laerm;68737;53.946;27.634;2023-04-24T03:24:02;53.098083;41.684639;69.430206;;
79288;Laerm;68737;53.946;27.634;2023-04-24T03:26:32;50.983047;42.014687;69.361450;;
79288;Laerm;68737;53.946;27.634;2023-04-24T03:29:02;48.734901;41.834152;60.213646;;
79288;Laerm;68737;53.946;27.634;2023-04-24T03:31:32;47.635132;42.365486;57.498390;;
79288;Laerm;68737;53.946;27.634;2023-04-24T03:34:02;48.437248;42.948685;59.645973;;
79288;Laerm;68737;53.946;27.634;2023-04-24T03:36:32;47.198067;43.500435;62.212975;;
79288;Laerm;68737;53.946;27.634;2023-04-24T03:39:02;50.312798;43.545403;61.645370;;
79288;Laerm;68737;53.946;27.634;2023-04-24T03:41:32;50.449974;44.078751;62.717373;;
79288;Laerm;68737;53.946;27.634;2023-04-24T03:44:02;50.703201;43.405708;62.399452;;
79288;Laerm;68737;53.946;27.634;2023-04-24T03:46:32;47.298141;42.901970;56.304283;;
79288;Laerm;68737;53.946;27.634;2023-04-24T03:49:02;50.303909;43.308960;63.006012;;
79288;Laerm;68737;53.946;27.634;2023-04-24T03:51:32;49.657509;42.423630;62.139301;;
79288;Laerm;68737;53.946;27.634;2023-04-24T03:54:04;50.073906;42.857552;61.569626;;
79288;Laerm;68737;53.946;27.634;2023-04-24T03:56:32;50.654823;41.682152;63.709221;;
79288;Laerm;68737;53.946;27.634;2023-04-24T03:59:02;46.744308;41.569458;59.549168;;
79288;Laerm;68737;53.946;27.634;2023-04-24T04:01:32;49.031479;42.267799;58.066963;;
79288;Laerm;68737;53.946;27.634;2023-04-24T04:04:02;50.123848;42.661118;65.776520;;
79288;Laerm;68737;53.946;27.634;2023-04-24T04:06:32;49.739021;43.393951;59.403976;;
79288;Laerm;68737;53.946;27.634;2023-04-24T04:09:02;51.714203;43.230019;70.814896;;
79288;Laerm;68737;53.946;27.634;2023-04-24T04:11:32;55.770325;43.699371;69.161850;;
79288;Laerm;68737;53.946;27.634;2023-04-24T04:14:02;50.700729;43.641014;64.215286;;
79288;Laerm;68737;53.946;27.634;2023-04-24T04:16:32;51.465225;44.269096;61.115597;;
79288;Laerm;68737;53.946;27.634;2023-04-24T04:19:02;50.107452;43.757446;60.742554;;
79288;Laerm;68737;53.946;27.634;2023-04-24T04:21:32;51.943054;43.689095;61.069588;;
79288;Laerm;68737;53.946;27.634;2023-04-24T04:24:02;51.523018;44.850914;61.070137;;
79288;Laerm;68737;53.946;27.634;2023-04-24T04:26:32;51.201286;45.020615;63.184181;;
79288;Laerm;68737;53.946;27.634;2023-04-24T04:29:02;49.722275;43.814804;56.503258;;
79288;Laerm;68737;53.946;27.634;2023-04-24T04:31:32;51.599205;44.077927;64.396149;;
79288;Laerm;68737;53.946;27.634;2023-04-24T04:34:02;49.409233;44.390862;58.502563;;
79288;Laerm;68737;53.946;27.634;2023-04-24T04:36:32;51.046875;45.084846;60.198124;;
79288;Laerm;68737;53.946;27.634;2023-04-24T04:39:02;53.297325;44.686035;65.878479;;
79288;Laerm;68737;53.946;27.634;2023-04-24T04:41:32;52.275253;45.777382;61.724701;;
79288;Laerm;68737;53.946;27.634;2023-04-24T04:44:02;50.593727;45.042427;57.970993;;
79288;Laerm;68737;53.946;27.634;2023-04-24T04:46:32;50.659821;45.340622;59.259525;;
79288;Laerm;68737;53.946;27.634;2023-04-24T04:49:02;51.853600;46.169640;66.238510;;
79288;Laerm;68737;53.946;27.634;2023-04-24T04:51:32;57.294479;47.451614;73.775711;;
79288;Laerm;68737;53.946;27.634;2023-04-24T04:54:02;54.811256;46.440147;65.003510;;
79288;Laerm;68737;53.946;27.634;2023-04-24T04:56:32;54.955017;46.534897;66.232407;;
79288;Laerm;68737;53.946;27.634;2023-04-24T04:59:02;51.779892;44.695190;61.439323;;
79288;Laerm;68737;53.946;27.634;2023-04-24T05:01:32;50.832596;44.961739;61.713875;;
79288;Laerm;68737;53.946;27.634;2023-04-24T05:04:02;54.483192;46.131531;66.555771;;
79288;Laerm;68737;53.946;27.634;2023-04-24T05:06:32;51.850372;45.666069;61.723824;;
79288;Laerm;68737;53.946;27.634;2023-04-24T05:09:02;52.622856;45.179573;63.626328;;
79288;Laerm;68737;53.946;27.634;2023-04-24T05:11:32;52.945236;45.325111;64.980133;;
79288;Laerm;68737;53.946;27.634;2023-04-24T05:14:02;54.409035;44.876068;64.397400;;
79288;Laerm;68737;53.946;27.634;2023-04-24T05:16:32;51.500343;44.138924;63.423019;;
79288;Laerm;68737;53.946;27.634;2023-04-24T05:19:02;53.489944;43.642899;61.631367;;
79288;Laerm;68737;53.946;27.634;2023-04-24T05:21:32;53.802368;44.174385;64.109680;;
79288;Laerm;68737;53.946;27.634;2023-04-24T05:24:02;52.005791;44.554825;62.947010;;
79288;Laerm;68737;53.946;27.634;2023-04-24T05:26:32;52.052917;44.761986;66.516838;;
79288;Laerm;68737;53.946;27.634;2023-04-24T05:29:02;50.358322;43.829170;59.429684;;
79288;Laerm;68737;53.946;27.634;2023-04-24T05:31:32;50.448837;45.272530;59.280331;;
79288;Laerm;68737;53.946;27.634;2023-04-24T05:34:02;53.459534;46.240746;61.685822;;
79288;Laerm;68737;53.946;27.634;2023-04-24T05:36:32;55.157944;47.986977;64.634331;;
79288;Laerm;68737;53.946;27.634;2023-04-24T05:39:02;53.332069;45.573601;59.863247;;
79288;Laerm;68737;53.946;27.634;2023-04-24T05:41:32;56.219681;47.233017;67.691330;;
79288;Laerm;68737;53.946;27.634;2023-04-24T05:44:02;53.473267;46.588371;69.329117;;
79288;Laerm;68737;53.946;27.634;2023-04-24T05:46:33;53.906342;47.024101;67.832199;;
79288;Laerm;68737;53.946;27.634;2023-04-24T05:49:02;50.828423;45.104111;59.084633;;
79288;Laerm;68737;53.946;27.634;2023-04-24T05:51:32;53.098145;46.802803;59.879150;;
79288;Laerm;68737;53.946;27.634;2023-04-24T05:54:02;55.719521;47.470413;64.887253;;
79288;Laerm;68737;53.946;27.634;2023-04-24T05:56:33;56.351746;45.545822;72.352417;;
79288;Laerm;68737;53.946;27.634;2023-04-24T05:59:02;53.756546;46.759148;63.140350;;
79288;Laerm;68737;53.946;27.634;2023-04-24T06:01:32;53.097008;44.888321;61.151005;;
79288;Laerm;68737;53.946;27.634;2023-04-24T06:04:03;52.750168;43.356842;63.991203;;
79288;Laerm;68737;53.946;27.634;2023-04-24T06:06:32;52.697250;44.170128;61.691525;;
79288;Laerm;68737;53.946;27.634;2023-04-24T06:09:02;51.444618;44.745605;59.312229;;
79288;Laerm;68737;53.946;27.634;2023-04-24T06:11:34;59.647976;49.133522;70.221397;;
79288;Laerm;68737;53.946;27.634;2023-04-24T06:14:04;54.162971;47.835289;65.597488;;
79288;Laerm;68737;53.946;27.634;2023-04-24T06:16:32;52.487251;45.852753;63.931141;;
79288;Laerm;68737;53.946;27.634;2023-04-24T06:19:02;55.329033;45.688156;66.072151;;
79288;Laerm;68737;53.946;27.634;2023-04-24T06:21:32;53.759590;46.133438;69.676926;;
79288;Laerm;68737;53.946;27.634;2023-04-24T06:24:02;52.473244;45.009521;69.503326;;
79288;Laerm;68737;53.946;27.634;2023-04-24T06:26:35;59.533836;45.823112;78.335548;;
79288;Laerm;68737;53.946;27.634;2023-04-24T06:29:02;52.576843;42.302933;62.258736;;
79288;Laerm;68737;53.946;27.634;2023-04-24T06:31:32;52.265968;43.432022;65.048676;;
79288;Laerm;68737;53.946;27.634;2023-04-24T06:34:02;53.375610;42.478340;62.100349;;
79288;Laerm;68737;53.946;27.634;2023-04-24T06:36:33;59.060879;45.153679;74.444016;;
79288;Laerm;68737;53.946;27.634;2023-04-24T06:39:03;57.034584;43.688126;69.305573;;
79288;Laerm;68737;53.946;27.634;2023-04-24T06:41:32;56.078072;44.345474;72.036255;;
79288;Laerm;68737;53.946;27.634;2023-04-24T06:44:02;56.363655;44.565773;68.261650;;
79288;Laerm;68737;53.946;27.634;2023-04-24T06:46:32;53.620392;45.286255;69.704254;;
79288;Laerm;68737;53.946;27.634;2023-04-24T06:49:02;53.096878;43.868362;65.997345;;
79288;Laerm;68737;53.946;27.634;2023-04-24T06:51:32;51.860497;42.671425;64.208511;;
79288;Laerm;68737;53.946;27.634;2023-04-24T06:54:04;54.423141;44.215500;63.580193;;
79288;Laerm;68737;53.946;27.634;2023-04-24T06:56:32;53.058434;43.460983;60.957836;;
79288;Laerm;68737;53.946;27.634;2023-04-24T06:59:02;52.100746;43.417412;63.435600;;
79288;Laerm;68737;53.946;27.634;2023-04-24T07:01:32;51.130417;41.915062;60.943764;;
79288;Laerm;68737;53.946;27.634;2023-04-24T07:04:02;50.948021;43.060722;61.316444;;
79288;Laerm;68737;53.946;27.634;2023-04-24T07:06:32;54.431236;45.433159;70.810043;;
79288;Laerm;68737;53.946;27.634;2023-04-24T07:09:02;55.574112;46.406525;67.166306;;
79288;Laerm;68737;53.946;27.634;2023-04-24T07:11:33;53.518944;46.116364;61.763748;;
79288;Laerm;68737;53.946;27.634;2023-04-24T07:14:02;54.175491;43.431343;65.221275;;
79288;Laerm;68737;53.946;27.634;2023-04-24T07:16:32;54.128624;45.810036;63.570827;;
79288;Laerm;68737;53.946;27.634;2023-04-24T07:19:02;53.337624;43.695740;64.079239;;
79288;Laerm;68737;53.946;27.634;2023-04-24T07:21:35;52.191040;44.224014;61.538544;;
79288;Laerm;68737;53.946;27.634;2023-04-24T07:24:02;53.387100;44.305977;62.232109;;
79288;Laerm;68737;53.946;27.634;2023-04-24T07:26:32;55.713005;45.841255;71.083344;;
79288;Laerm;68737;53.946;27.634;2023-04-24T07:29:04;57.836441;44.681610;78.401443;;
79288;Laerm;68737;53.946;27.634;2023-04-24T07:31:32;53.149849;42.586449;63.139481;;
79288;Laerm;68737;53.946;27.634;2023-04-24T07:34:02;54.021492;45.830688;67.879913;;
79288;Laerm;68737;53.946;27.634;2023-04-24T07:36:32;53.890541;43.962296;71.525520;;
79288;Laerm;68737;53.946;27.634;2023-04-24T07:39:02;52.821518;44.587379;66.352890;;
79288;Laerm;68737;53.946;27.634;2023-04-24T07:41:32;53.545059;45.177132;63.092377;;
79288;Laerm;68737;53.946;27.634;2023-04-24T07:44:02;52.054115;43.994240;63.490829;;
79288;Laerm;68737;53.946;27.634;2023-04-24T07:46:32;53.576897;45.950111;60.803093;;
79288;Laerm;68737;53.946;27.634;2023-04-24T07:49:02;53.296379;45.109215;61.017155;;
79288;Laerm;68737;53.946;27.634;2023-04-24T07:51:34;54.069572;45.057739;61.203835;;
79288;Laerm;68737;53.946;27.634;2023-04-24T07:54:04;55.020454;47.588615;66.485931;;
79288;Laerm;68737;53.946;27.634;2023-04-24T07:56:33;55.040352;46.817978;65.829453;;
79288;Laerm;68737;53.946;27.634;2023-04-24T07:59:02;52.501221;44.906456;59.455212;;
79288;Laerm;68737;53.946;27.634;2023-04-24T08:01:32;53.413246;44.771660;60.734791;;
79288;Laerm;68737;53.946;27.634;2023-04-24T08:04:02;52.340698;43.969078;63.878193;;
79288;Laerm;68737;53.946;27.634;2023-04-24T08:06:32;55.124008;47.869499;62.359715;;
79288;Laerm;68737;53.946;27.634;2023-04-24T08:09:04;54.274818;46.267693;64.829002;;
79288;Laerm;68737;53.946;27.634;2023-04-24T08:11:34;56.528915;46.407867;67.009872;;
79288;Laerm;68737;53.946;27.634;2023-04-24T08:14:02;52.658333;45.004219;62.400021;;
79288;Laerm;68737;53.946;27.634;2023-04-24T08:16:32;54.935440;45.534698;71.181213;;
79288;Laerm;68737;53.946;27.634;2023-04-24T08:19:02;55.533875;44.310966;72.511505;;
79288;Laerm;68737;53.946;27.634;2023-04-24T08:21:32;53.406540;46.401054;63.882431;;
79288;Laerm;68737;53.946;27.634;2023-04-24T08:24:02;54.846016;46.541306;69.175049;;
79288;Laerm;68737;53.946;27.634;2023-04-24T08:26:32;53.182388;45.614532;72.393997;;
79288;Laerm;68737;53.946;27.634;2023-04-24T08:29:04;53.695251;44.698105;62.710171;;
79288;Laerm;68737;53.946;27.634;2023-04-24T08:31:34;54.114494;46.349113;65.158539;;
79288;Laerm;68737;53.946;27.634;2023-04-24T08:34:02;53.295486;46.036400;60.196663;;
79288;Laerm;68737;53.946;27.634;2023-04-24T08:36:32;53.189819;45.047615;62.439644;;
79288;Laerm;68737;53.946;27.634;2023-04-24T08:39:02;52.996239;44.839218;62.570251;;
79288;Laerm;68737;53.946;27.634;2023-04-24T08:41:32;55.133278;44.814850;68.372269;;
79288;Laerm;68737;53.946;27.634;2023-04-24T08:44:02;53.088791;45.589096;66.355347;;
79288;Laerm;68737;53.946;27.634;2023-04-24T08:46:32;58.968353;46.682114;69.626297;;
79288;Laerm;68737;53.946;27.634;2023-04-24T08:49:02;51.812325;44.319145;64.439240;;
79288;Laerm;68737;53.946;27.634;2023-04-24T08:51:33;52.205650;44.529602;61.160454;;
79288;Laerm;68737;53.946;27.634;2023-04-24T08:54:02;53.796951;46.145302;75.243439;;
79288;Laerm;68737;53.946;27.634;2023-04-24T08:56:33;55.039650;47.698410;63.105320;;
79288;Laerm;68737;53.946;27.634;2023-04-24T08:59:02;52.051094;45.073509;64.307480;;
79288;Laerm;68737;53.946;27.634;2023-04-24T09:01:32;55.023972;45.586014;63.478352;;
79288;Laerm;68737;53.946;27.634;2023-04-24T09:04:02;53.952309;44.759926;75.306740;;
79288;Laerm;68737;53.946;27.634;2023-04-24T09:06:32;55.394386;46.128754;63.795242;;
79288;Laerm;68737;53.946;27.634;2023-04-24T09:09:02;53.463593;46.954498;62.578289;;
79288;Laerm;68737;53.946;27.634;2023-04-24T09:11:32;56.181664;45.326546;70.949486;;
79288;Laerm;68737;53.946;27.634;2023-04-24T09:14:02;52.412224;45.417313;66.584167;;
79288;Laerm;68737;53.946;27.634;2023-04-24T09:16:32;58.547165;46.994720;71.641869;;
79288;Laerm;68737;53.946;27.634;2023-04-24T09:19:02;52.319992;45.794334;59.910019;;
79288;Laerm;68737;53.946;27.634;2023-04-24T09:21:32;54.977867;45.883286;63.949135;;
79288;Laerm;68737;53.946;27.634;2023-04-24T09:24:03;52.959610;46.061256;65.175797;;
79288;Laerm;68737;53.946;27.634;2023-04-24T09:26:34;52.869942;45.548233;61.569477;;
79288;Laerm;68737;53.946;27.634;2023-04-24T09:29:02;52.286491;43.349686;61.395081;;
79288;Laerm;68737;53.946;27.634;2023-04-24T09:31:32;52.717545;42.499008;72.000061;;
79288;Laerm;68737;53.946;27.634;2023-04-24T09:34:06;53.000717;45.392921;59.789085;;
79288;Laerm;68737;53.946;27.634;2023-04-24T09:36:32;52.529900;44.977173;63.513988;;
79288;Laerm;68737;53.946;27.634;2023-04-24T09:39:02;51.277679;44.611816;60.375324;;
79288;Laerm;68737;53.946;27.634;2023-04-24T09:41:32;53.387596;45.145691;63.016026;;
79288;Laerm;68737;53.946;27.634;2023-04-24T09:46:32;53.875244;44.604607;61.581467;;
79288;Laerm;68737;53.946;27.634;2023-04-24T09:54:02;52.595520;44.269417;65.616516;;
79288;Laerm;68737;53.946;27.634;2023-04-24T09:56:32;56.393608;47.642250;66.886436;;
79288;Laerm;68737;53.946;27.634;2023-04-24T09:59:06;53.351273;44.568626;66.904976;;
79288;Laerm;68737;53.946;27.634;2023-04-24T10:01:32;53.207047;43.642914;63.412262;;
79288;Laerm;68737;53.946;27.634;2023-04-24T10:04:02;55.941856;47.199463;70.186714;;
79288;Laerm;68737;53.946;27.634;2023-04-24T10:06:37;54.810379;46.378540;70.647774;;
79288;Laerm;68737;53.946;27.634;2023-04-24T10:09:02;52.691109;44.606598;65.569923;;
79288;Laerm;68737;53.946;27.634;2023-04-24T10:11:32;54.565582;44.585052;71.134827;;
79288;Laerm;68737;53.946;27.634;2023-04-24T10:14:02;54.017586;45.250229;69.342361;;
79288;Laerm;68737;53.946;27.634;2023-04-24T10:16:32;57.291481;46.533089;71.647011;;
79288;Laerm;68737;53.946;27.634;2023-04-24T10:19:02;54.049759;44.576599;65.876373;;
79288;Laerm;68737;53.946;27.634;2023-04-24T10:21:32;54.410187;47.403633;68.068802;;
79288;Laerm;68737;53.946;27.634;2023-04-24T10:24:02;54.985710;46.401428;65.984680;;
79288;Laerm;68737;53.946;27.634;2023-04-24T10:26:32;56.246223;46.598999;65.052185;;
79288;Laerm;68737;53.946;27.634;2023-04-24T10:29:02;55.686668;46.606064;65.384552;;
79288;Laerm;68737;53.946;27.634;2023-04-24T10:31:32;54.992073;45.001884;65.124252;;
79288;Laerm;68737;53.946;27.634;2023-04-24T10:34:02;53.506645;46.201813;63.560265;;
79288;Laerm;68737;53.946;27.634;2023-04-24T10:39:02;53.676086;46.185219;72.156830;;
79288;Laerm;68737;53.946;27.634;2023-04-24T10:41:32;54.394417;45.178131;69.260727;;
79288;Laerm;68737;53.946;27.634;2023-04-24T10:46:32;53.984612;45.561577;65.249741;;
79288;Laerm;68737;53.946;27.634;2023-04-24T10:54:04;58.480156;45.437668;79.244095;;
79288;Laerm;68737;53.946;27.634;2023-04-24T10:56:32;54.524467;44.452103;65.009163;;
79288;Laerm;68737;53.946;27.634;2023-04-24T10:59:02;53.283035;44.417442;65.362541;;
79288;Laerm;68737;53.946;27.634;2023-04-24T11:01:32;54.443192;46.425423;77.145546;;
79288;Laerm;68737;53.946;27.634;2023-04-24T11:04:02;52.519112;43.589088;61.683186;;
79288;Laerm;68737;53.946;27.634;2023-04-24T11:06:36;52.407211;44.284729;60.246651;;
79288;Laerm;68737;53.946;27.634;2023-04-24T11:09:06;53.899239;44.213722;65.788460;;
79288;Laerm;68737;53.946;27.634;2023-04-24T11:11:32;54.353806;46.367943;61.594448;;
79288;Laerm;68737;53.946;27.634;2023-04-24T11:14:02;53.121552;44.712646;61.249481;;
79288;Laerm;68737;53.946;27.634;2023-04-24T11:16:32;52.267502;45.457932;58.816254;;
79288;Laerm;68737;53.946;27.634;2023-04-24T11:21:32;53.483032;46.256989;68.880783;;
79288;Laerm;68737;53.946;27.634;2023-04-24T11:24:21;54.104256;45.610992;63.992435;;
79288;Laerm;68737;53.946;27.634;2023-04-24T11:26:31;54.072876;45.719688;61.792637;;
79288;Laerm;68737;53.946;27.634;2023-04-24T11:36:31;53.005104;45.400238;64.332336;;
79288;Laerm;68737;53.946;27.634;2023-04-24T11:39:02;54.911697;45.208282;67.595978;;
79288;Laerm;68737;53.946;27.634;2023-04-24T11:41:32;53.707207;44.976677;66.308105;;
79288;Laerm;68737;53.946;27.634;2023-04-24T11:44:02;51.741516;46.098511;61.901131;;
79288;Laerm;68737;53.946;27.634;2023-04-24T11:46:32;58.471909;47.485275;72.141052;;
79288;Laerm;68737;53.946;27.634;2023-04-24T11:49:01;54.644836;46.980774;64.413750;;
79288;Laerm;68737;53.946;27.634;2023-04-24T11:51:31;52.864494;44.047089;72.285538;;
79288;Laerm;68737;53.946;27.634;2023-04-24T11:54:01;52.856583;44.613869;64.777634;;
79288;Laerm;68737;53.946;27.634;2023-04-24T11:56:31;55.081459;46.578484;64.270813;;
79288;Laerm;68737;53.946;27.634;2023-04-24T11:59:03;54.251961;45.900055;62.523190;;
79288;Laerm;68737;53.946;27.634;2023-04-24T12:01:42;53.542450;45.286240;63.716034;;
79288;Laerm;68737;53.946;27.634;2023-04-24T12:04:01;53.634880;45.521843;61.026905;;
79288;Laerm;68737;53.946;27.634;2023-04-24T12:06:31;54.104874;46.284470;63.226112;;
79288;Laerm;68737;53.946;27.634;2023-04-24T12:09:01;52.162354;45.048149;62.195927;;
79288;Laerm;68737;53.946;27.634;2023-04-24T12:11:31;53.594574;45.657692;60.569904;;
79288;Laerm;68737;53.946;27.634;2023-04-24T12:16:32;56.420509;48.152107;66.578186;;
79288;Laerm;68737;53.946;27.634;2023-04-24T12:19:01;53.290871;44.890160;65.729805;;
79288;Laerm;68737;53.946;27.634;2023-04-24T12:21:31;55.830719;45.313454;75.009430;;